createdAt,value
2023-05-24T00:00:43.013Z,67.50
2023-05-24T00:05:46.886Z,68.12
2023-05-24T00:10:48.659Z,68.66
2023-05-24T00:15:50.557Z,69.08
2023-05-24T00:20:53.415Z,70.17
2023-05-24T00:25:55.076Z,70.33
2023-05-24T00:30:57.647Z,70.39
2023-05-24T00:35:59.312Z,70.52
2023-05-24T00:41:01.464Z,71.12
2023-05-24T00:46:09.262Z,71.57
2023-05-24T00:51:12.137Z,72.02
2023-05-24T00:56:15.521Z,71.76
2023-05-24T01:01:17.262Z,72.37
2023-05-24T01:06:19.808Z,73.08
2023-05-24T01:11:51.673Z,73.46
2023-05-24T01:17:13.458Z,74.29
2023-05-24T01:22:33.733Z,73.78
2023-05-24T01:27:38.414Z,74.11
2023-05-24T01:32:40.796Z,74.18
2023-05-24T01:37:42.421Z,74.56
2023-05-24T01:42:56.585Z,75.24
2023-05-24T01:48:26.094Z,75.75
2023-05-24T01:53:34.246Z,76.09
2023-05-24T01:58:37.645Z,76.02
2023-05-24T02:03:39.919Z,75.74
2023-05-24T02:08:41.588Z,76.54
2023-05-24T02:13:43.199Z,76.58
2023-05-24T02:18:46.784Z,76.32
2023-05-24T02:23:48.794Z,75.83
2023-05-24T02:28:50.869Z,75.83
2023-05-24T02:33:52.466Z,75.86
2023-05-24T02:38:54.465Z,76.05
2023-05-24T02:43:56.083Z,76.47
2023-05-24T02:48:57.751Z,75.53
2023-05-24T02:53:59.486Z,76.20
2023-05-24T02:59:01.068Z,76.54
2023-05-24T03:04:04.917Z,76.08
2023-05-24T03:09:06.917Z,76.81
2023-05-24T03:14:10.992Z,76.94
2023-05-24T03:19:17.333Z,76.71
2023-05-24T03:24:19.360Z,76.61
2023-05-24T03:29:21.598Z,77.24
2023-05-24T03:34:23.841Z,77.21
2023-05-24T03:39:25.484Z,77.15
2023-05-24T03:44:37.820Z,77.40
2023-05-24T03:49:41.271Z,77.98
2023-05-24T03:54:42.879Z,77.56
2023-05-24T03:59:45.754Z,78.41
2023-05-24T04:04:47.455Z,78.13
2023-05-24T04:09:49.126Z,78.02
2023-05-24T04:14:51.869Z,78.73
2023-05-24T04:19:53.796Z,78.74
2023-05-24T04:24:55.615Z,78.83
2023-05-24T04:29:57.342Z,78.03
2023-05-24T04:34:58.984Z,78.75
2023-05-24T04:40:00.625Z,78.19
2023-05-24T04:45:02.396Z,78.71
2023-05-24T04:50:04.749Z,78.23
2023-05-24T04:55:06.798Z,77.59
2023-05-24T05:00:10.209Z,77.73
2023-05-24T05:05:12.686Z,77.37
2023-05-24T05:10:14.446Z,76.98
2023-05-24T05:15:16.070Z,76.21
2023-05-24T05:20:17.878Z,76.77
2023-05-24T05:25:19.688Z,75.90
2023-05-24T05:30:21.347Z,76.26
2023-05-24T05:35:22.940Z,75.96
2023-05-24T05:40:24.679Z,75.51
2023-05-24T05:45:26.503Z,75.01
2023-05-24T05:50:28.072Z,75.37
2023-05-24T05:55:29.678Z,74.35
2023-05-24T06:00:31.595Z,74.75
2023-05-24T06:05:33.401Z,74.52
2023-05-24T06:10:35.050Z,73.69
2023-05-24T06:15:37.708Z,73.02
2023-05-24T06:20:39.448Z,72.94
2023-05-24T06:25:43.982Z,72.67
2023-05-24T06:30:47.579Z,70.44
2023-05-24T06:35:49.569Z,69.70
2023-05-24T06:40:51.325Z,69.27
2023-05-24T06:45:56.504Z,69.31
2023-05-24T06:50:58.496Z,68.18
2023-05-24T06:56:00.120Z,68.31
2023-05-24T07:01:02.586Z,68.16
2023-05-24T07:06:04.250Z,68.50
2023-05-24T07:11:06.316Z,68.65
2023-05-24T07:16:08.412Z,67.87
2023-05-24T07:21:10.047Z,66.85
2023-05-24T07:26:12.798Z,66.51
2023-05-24T07:31:14.624Z,67.31
2023-05-24T07:36:16.215Z,66.72
2023-05-24T07:41:18.099Z,65.97
2023-05-24T07:46:19.748Z,65.94
2023-05-24T07:51:21.570Z,65.48
2023-05-24T07:56:23.806Z,64.89
2023-05-24T08:01:25.397Z,64.41
2023-05-24T08:06:27.609Z,63.58
2023-05-24T08:11:29.251Z,61.65
2023-05-24T08:16:31.753Z,61.93
2023-05-24T08:21:36.522Z,61.50
2023-05-24T08:26:38.367Z,61.63
2023-05-24T08:31:39.994Z,62.03
2023-05-24T08:36:43.853Z,61.24
2023-05-24T08:41:57.382Z,60.91
2023-05-24T08:47:09.580Z,61.89
2023-05-24T08:52:12.791Z,62.43
2023-05-24T08:57:17.781Z,61.48
2023-05-24T09:02:19.788Z,60.72
2023-05-24T09:07:25.503Z,60.25
2023-05-24T09:12:37.237Z,55.35
2023-05-24T09:17:40.841Z,54.76
2023-05-24T09:22:43.499Z,53.36
2023-05-24T09:27:50.565Z,53.45
2023-05-24T09:32:57.476Z,53.06
2023-05-24T09:38:00.178Z,53.75
2023-05-24T09:43:10.347Z,54.49
2023-05-24T09:48:20.325Z,54.80
2023-05-24T09:53:22.432Z,56.01
2023-05-24T09:58:30.184Z,55.93
2023-05-24T10:03:32.336Z,56.14
2023-05-24T10:08:35.514Z,55.98
2023-05-24T10:13:37.633Z,55.38
2023-05-24T10:18:39.947Z,55.53
2023-05-24T10:23:44.591Z,55.31
2023-05-24T10:28:52.589Z,54.04
2023-05-24T10:34:04.386Z,54.24
2023-05-24T10:39:12.199Z,54.35
2023-05-24T10:44:20.451Z,52.45
2023-05-24T10:49:22.762Z,52.20
2023-05-24T10:54:27.448Z,52.37
2023-05-24T10:59:31.600Z,51.14
2023-05-24T11:04:39.631Z,50.71
2023-05-24T11:09:47.513Z,51.68
2023-05-24T11:14:53.266Z,49.73
2023-05-24T11:19:56.728Z,50.68
2023-05-24T11:25:03.371Z,48.85
2023-05-24T11:30:07.532Z,50.45
2023-05-24T11:35:11.753Z,47.44
2023-05-24T11:40:15.134Z,47.91
2023-05-24T11:45:18.762Z,47.87
2023-05-24T11:50:25.303Z,48.29
2023-05-24T11:55:28.495Z,48.49
2023-05-24T12:00:30.731Z,47.76
2023-05-24T12:05:32.482Z,48.43
2023-05-24T12:10:37.877Z,47.55
2023-05-24T12:15:39.644Z,48.47
2023-05-24T12:20:42.352Z,48.75
2023-05-24T12:25:44.386Z,48.73
2023-05-24T12:30:46.664Z,49.68
2023-05-24T12:35:48.734Z,49.14
2023-05-24T12:41:03.906Z,49.48
2023-05-24T12:46:13.213Z,49.70
2023-05-24T12:51:14.924Z,48.50
2023-05-24T12:56:16.770Z,48.78
2023-05-24T13:01:18.465Z,49.73
2023-05-24T13:06:20.381Z,48.82
2023-05-24T13:11:23.030Z,48.45
2023-05-24T13:16:25.787Z,49.59
2023-05-24T13:21:27.944Z,49.04
2023-05-24T13:26:30.935Z,49.37
2023-05-24T13:31:32.783Z,48.07
2023-05-24T13:36:34.882Z,47.07
2023-05-24T13:41:37.191Z,49.16
2023-05-24T13:46:39.453Z,48.96
2023-05-24T13:51:41.307Z,47.40
2023-05-24T13:56:44.736Z,47.62
2023-05-24T14:01:48.679Z,46.24
2023-05-24T14:06:50.319Z,46.86
2023-05-24T14:11:52.787Z,46.03
2023-05-24T14:16:55.374Z,45.63
2023-05-24T14:21:57.220Z,45.55
2023-05-24T14:26:58.824Z,44.76
2023-05-24T14:32:00.525Z,45.59
2023-05-24T14:37:02.883Z,45.38
2023-05-24T14:42:04.678Z,44.10
2023-05-24T14:47:06.374Z,45.35
2023-05-24T14:52:07.927Z,45.07
2023-05-24T14:57:09.498Z,44.68
2023-05-24T15:02:11.164Z,44.28
2023-05-24T15:07:12.851Z,44.84
2023-05-24T15:12:14.541Z,42.75
2023-05-24T15:17:16.462Z,42.49
2023-05-24T15:22:18.126Z,43.65
2023-05-24T15:27:19.718Z,42.90
2023-05-24T15:32:21.674Z,42.95
2023-05-24T15:37:23.257Z,43.58
2023-05-24T15:42:25.241Z,43.63
2023-05-24T15:47:36.098Z,43.59
2023-05-24T15:52:37.906Z,42.21
2023-05-24T15:57:39.498Z,41.77
2023-05-24T16:02:41.317Z,43.26
2023-05-24T16:07:42.987Z,43.44
2023-05-24T16:12:44.561Z,43.88
2023-05-24T16:17:46.386Z,42.75
2023-05-24T16:22:51.382Z,43.79
2023-05-24T16:27:53.013Z,44.58
2023-05-24T16:32:54.650Z,43.17
2023-05-24T16:37:56.323Z,43.55
2023-05-24T16:43:00.410Z,43.67
2023-05-24T16:48:02.248Z,43.56
2023-05-24T16:53:05.337Z,43.41
2023-05-24T16:58:08.166Z,44.14
2023-05-24T17:03:10.335Z,44.00
2023-05-24T17:08:12.135Z,43.69
2023-05-24T17:13:13.752Z,43.88
2023-05-24T17:18:15.327Z,43.82
2023-05-24T17:23:17.505Z,44.23
2023-05-24T17:28:20.206Z,43.59
2023-05-24T17:33:26.026Z,43.77
2023-05-24T17:38:28.637Z,43.56
2023-05-24T17:43:32.462Z,43.79
2023-05-24T17:48:41.906Z,43.22
2023-05-24T17:53:43.577Z,45.04
2023-05-24T17:58:47.433Z,45.87
2023-05-24T18:03:49.407Z,47.49
2023-05-24T18:08:51.102Z,48.16
2023-05-24T18:13:52.938Z,48.53
2023-05-24T18:18:54.878Z,48.81
2023-05-24T18:23:56.473Z,48.82
2023-05-24T18:28:58.071Z,49.66
2023-05-24T18:34:01.775Z,49.45
2023-05-24T18:39:04.193Z,49.39
2023-05-24T18:44:05.744Z,48.86
2023-05-24T18:49:10.958Z,49.07
2023-05-24T18:54:13.764Z,48.71
2023-05-24T18:59:16.820Z,48.88
2023-05-24T19:04:18.449Z,48.49
2023-05-24T19:09:20.016Z,49.16
2023-05-24T19:14:22.140Z,49.15
2023-05-24T19:19:23.736Z,49.51
2023-05-24T19:24:26.026Z,49.74
2023-05-24T19:29:27.956Z,50.64
2023-05-24T19:34:32.981Z,50.66
2023-05-24T19:39:35.593Z,51.62
2023-05-24T19:44:37.611Z,52.22
2023-05-24T19:49:39.202Z,52.18
2023-05-24T19:54:41.373Z,53.02
2023-05-24T19:59:43.046Z,52.92
2023-05-24T20:04:44.694Z,52.59
2023-05-24T20:09:46.350Z,53.13
2023-05-24T20:14:47.973Z,53.45
2023-05-24T20:19:49.684Z,53.83
2023-05-24T20:24:51.304Z,54.38
2023-05-24T20:29:52.904Z,55.03
2023-05-24T20:34:54.443Z,56.02
2023-05-24T20:39:56.329Z,56.05
2023-05-24T20:44:58.224Z,55.77
2023-05-24T20:49:59.824Z,56.41
2023-05-24T20:55:01.676Z,57.48
2023-05-24T21:00:04.691Z,57.29
2023-05-24T21:05:07.950Z,57.29
2023-05-24T21:10:14.800Z,58.10
2023-05-24T21:15:16.578Z,58.71
2023-05-24T21:20:19.265Z,58.19
2023-05-24T21:25:21.008Z,59.08
2023-05-24T21:30:22.692Z,59.28
2023-05-24T21:35:24.307Z,59.11
2023-05-24T21:40:25.941Z,59.48
2023-05-24T21:45:27.584Z,60.13
2023-05-24T21:50:29.393Z,60.44
2023-05-24T21:55:31.023Z,61.37
2023-05-24T22:00:33.105Z,61.67
2023-05-24T22:05:34.666Z,61.90
2023-05-24T22:10:36.368Z,61.97
2023-05-24T22:15:37.915Z,63.48
2023-05-24T22:20:39.544Z,62.54
2023-05-24T22:25:41.810Z,63.50
2023-05-24T22:30:43.486Z,63.76
2023-05-24T22:35:45.174Z,64.60
2023-05-24T22:40:47.053Z,63.63
2023-05-24T22:45:48.629Z,65.12
2023-05-24T22:50:50.220Z,65.63
2023-05-24T22:55:51.940Z,65.38
2023-05-24T23:00:53.494Z,66.79
2023-05-24T23:05:55.629Z,67.61
2023-05-24T23:10:58.213Z,69.86
2023-05-24T23:16:00.093Z,70.08
2023-05-24T23:21:02.929Z,70.99
2023-05-24T23:26:04.535Z,72.08
2023-05-24T23:31:06.314Z,72.98
2023-05-24T23:36:09.832Z,75.13
2023-05-24T23:41:11.611Z,77.17
2023-05-24T23:46:13.196Z,75.88
2023-05-24T23:51:14.877Z,76.36
2023-05-24T23:56:16.573Z,77.11
